McCalla, Alabama
Current Conditions -  °F | °C
As of 10:53 PM on Tuesday 25 Nov 2014 (Local Time) from KEET Reporting Station
Overcast Overcast  
Wind Chill: 42°   Ceiling: 9500
Heat Index: 47°   Visibility: 10mi
Dew Point: 32°   Wind: 10mph
Humidity: 56%   Direction: 320°NW
Pressure: 30.1"   Gusts: 20mph
Location:  33.35°N, 87.01°W
Report Text: KEET 260453Z AUTO 32009G17KT 10SM OVC095 08/00 A3010 RMK AO2 SLP190 T00830000
Loading
Personal Weather Stations






























Interactive Weather Map New forecast layout! Learn more

10-Day Weather Forecast

Advertisements
Track Severe Weather on mobile